This is the latest recevied weather packets stored in our database for station/object DC1RS. If no packets are shown the sender has not sent any weather packets the latest 10 day(s).
| Time | Temp. | Humidity | Pressure | Rain* | Wind** | Luminosity | Snow |
|---|---|---|---|---|---|---|---|
| 1777309611 | 17.78° C | 33% | 1018.4 hPa | 0 mm | - | 68 W/m² | - |
| 1777308681 | 18.33° C | 32% | 1018.3 hPa | 0 mm | - | 74 W/m² | - |
| 1777307121 | 18.89° C | 32% | 1018.4 hPa | 0 mm | - | 120 W/m² | - |
| 1777304301 | 19.44° C | 30% | 1018.8 hPa | 0 mm | - | 226 W/m² | - |
| 1777302741 | 20.56° C | 30% | 1019.1 hPa | 0 mm | - | 331 W/m² | - |
| 1777301950 | 20.56° C | 31% | 1019.4 hPa | 0 mm | - | 409 W/m² | - |
| 1777300851 | 20.56° C | 33% | 1019.4 hPa | 0 mm | - | 512 W/m² | - |
| 1777299230 | 20° C | 37% | 1020 hPa | 0 mm | - | 665 W/m² | - |
| 1777298301 | 18.89° C | 39% | 1019.9 hPa | 0 mm | - | 627 W/m² | - |
| 1777297340 | 18.33° C | 39% | 1020.3 hPa | 0 mm | - | 328 W/m² | - |
| 1777295780 | 19.44° C | 35% | 1020.3 hPa | 0 mm | - | 598 W/m² | - |
| 1777293291 | 19.44° C | 38% | 1021.1 hPa | 0 mm | - | 769 W/m² | - |
| 1777291730 | 19.44° C | 35% | 1021.4 hPa | 0 mm | - | 799 W/m² | - |
| 1777289481 | 18.89° C | 32% | 1022.2 hPa | 0 mm | - | 833 W/m² | - |
| 1777287921 | 18.89° C | 36% | 1022.3 hPa | 0 mm | - | 829 W/m² | - |
| 1777286502 | 18.33° C | 41% | 1022.6 hPa | 0 mm | - | 815 W/m² | - |
| 1777284942 | 17.78° C | 39% | 1022.9 hPa | 0 mm | - | 796 W/m² | - |
| 1777281981 | 16.11° C | 39% | 1023.4 hPa | 0 mm | - | 736 W/m² | - |
| 1777280451 | 15.56° C | 40% | 1023.7 hPa | 0 mm | - | 690 W/m² | - |
| 1777278042 | 15.56° C | 42% | 1023.8 hPa | 0 mm | - | 597 W/m² | - |
| 1777276422 | 13.89° C | 44% | 1024 hPa | 0 mm | - | 527 W/m² | - |
| 1777275321 | 13.33° C | 47% | 1023.9 hPa | 0 mm | - | 478 W/m² | - |
| 1777273731 | 11.67° C | 55% | 1023.8 hPa | 0 mm | - | 395 W/m² | - |
| 1777271481 | 9.44° C | 62% | 1024.2 hPa | 0 mm | - | 271 W/m² | - |
| 1777269861 | 6.67° C | 72% | 1023.9 hPa | 0 mm | - | 181 W/m² | - |
* Rain latest hour (hover to see other rain measurements)
** Current wind speed in m/s (hover to see current wind gust speed)